createdAt,value
2023-02-16T00:01:44.297Z,366.77
2023-02-16T00:04:18.829Z,366.63
2023-02-16T00:06:46.698Z,365.37
2023-02-16T00:09:14.752Z,366.87
2023-02-16T00:12:01.533Z,374.40
2023-02-16T00:14:29.564Z,369.70
2023-02-16T00:16:59.167Z,379.27
2023-02-16T00:19:28.382Z,380.73
2023-02-16T00:21:58.228Z,372.07
2023-02-16T00:24:27.230Z,379.30
2023-02-16T00:26:56.922Z,372.73
2023-02-16T00:29:28.249Z,373.53
2023-02-16T00:31:57.084Z,378.23
2023-02-16T00:34:31.284Z,377.00
2023-02-16T00:37:00.188Z,372.57
2023-02-16T00:39:28.505Z,376.33
2023-02-16T00:42:01.145Z,375.30
2023-02-16T00:44:33.500Z,371.07
2023-02-16T00:47:04.116Z,373.23
2023-02-16T00:49:31.911Z,378.67
2023-02-16T00:51:59.646Z,386.13
2023-02-16T00:54:27.253Z,382.97
2023-02-16T00:56:54.881Z,392.33
2023-02-16T00:59:24.261Z,383.03
2023-02-16T01:01:52.027Z,379.77
2023-02-16T01:04:24.046Z,387.90
2023-02-16T01:07:08.995Z,376.00
2023-02-16T01:09:54.433Z,376.23
2023-02-16T01:12:22.921Z,391.00
2023-02-16T01:14:55.629Z,392.27
2023-02-16T01:17:24.267Z,396.97
2023-02-16T01:19:51.879Z,387.93
2023-02-16T01:22:19.482Z,387.70
2023-02-16T01:24:47.068Z,393.67
2023-02-16T01:27:15.076Z,401.07
2023-02-16T01:29:42.977Z,389.30
2023-02-16T01:32:13.911Z,390.50
2023-02-16T01:34:42.189Z,384.20
2023-02-16T01:37:15.962Z,395.20
2023-02-16T01:39:43.704Z,391.53
2023-02-16T01:42:19.209Z,382.73
2023-02-16T01:44:50.760Z,395.80
2023-02-16T01:47:33.984Z,401.40
2023-02-16T01:50:03.560Z,393.03
2023-02-16T01:52:35.755Z,409.93
2023-02-16T01:55:08.906Z,419.47
2023-02-16T01:57:43.759Z,404.43
2023-02-16T02:00:16.365Z,419.77
2023-02-16T02:02:49.706Z,405.50
2023-02-16T02:05:35.084Z,412.87
2023-02-16T02:08:11.531Z,416.83
2023-02-16T02:10:47.313Z,420.47
2023-02-16T02:13:22.411Z,409.00
2023-02-16T02:15:50.281Z,412.73
2023-02-16T02:18:19.325Z,406.10
2023-02-16T02:21:27.522Z,412.97
2023-02-16T02:24:16.991Z,412.40
2023-02-16T02:27:03.680Z,422.27
2023-02-16T02:30:07.185Z,410.93
2023-02-16T02:32:56.589Z,412.20
2023-02-16T02:35:38.063Z,415.00
2023-02-16T02:38:13.394Z,407.23
2023-02-16T02:40:55.924Z,428.30
2023-02-16T02:43:29.655Z,407.63
2023-02-16T02:46:00.465Z,411.80
2023-02-16T02:48:31.761Z,422.47
2023-02-16T02:51:18.794Z,414.23
2023-02-16T02:54:12.661Z,430.67
2023-02-16T02:57:01.203Z,419.07
2023-02-16T02:59:49.787Z,431.67
2023-02-16T03:02:18.808Z,429.27
2023-02-16T03:04:48.031Z,429.77
2023-02-16T03:07:16.239Z,436.30
2023-02-16T03:09:44.301Z,445.57
2023-02-16T03:12:31.959Z,429.40
2023-02-16T03:15:03.679Z,430.17
2023-02-16T03:17:53.459Z,435.40
2023-02-16T03:20:39.321Z,434.80
2023-02-16T03:23:25.695Z,429.30
2023-02-16T03:26:11.767Z,432.27
2023-02-16T03:29:00.197Z,440.27
2023-02-16T03:31:34.679Z,433.40
2023-02-16T03:34:03.552Z,424.67
2023-02-16T03:36:36.605Z,433.57
2023-02-16T03:39:05.714Z,437.80
2023-02-16T03:41:34.777Z,434.50
2023-02-16T03:44:02.404Z,437.80
2023-02-16T03:46:32.051Z,436.73
2023-02-16T03:48:59.654Z,432.63
2023-02-16T03:51:27.398Z,435.33
2023-02-16T03:53:55.023Z,437.30
2023-02-16T03:56:22.692Z,433.63
2023-02-16T03:58:50.260Z,453.70
2023-02-16T04:01:17.923Z,434.37
2023-02-16T04:03:46.862Z,428.30
2023-02-16T04:06:14.517Z,436.03
2023-02-16T04:08:42.117Z,435.73
2023-02-16T04:11:23.703Z,443.07
2023-02-16T04:13:51.362Z,439.90
2023-02-16T04:16:19.046Z,444.10
2023-02-16T04:18:47.990Z,436.73
2023-02-16T04:21:15.583Z,440.17
2023-02-16T04:23:43.892Z,436.63
2023-02-16T04:26:11.467Z,429.33
2023-02-16T04:28:39.078Z,422.43
2023-02-16T04:31:07.219Z,433.63
2023-02-16T04:33:35.017Z,440.43
2023-02-16T04:36:04.014Z,425.60
2023-02-16T04:38:31.591Z,423.90
2023-02-16T04:40:59.213Z,420.53
2023-02-16T04:43:26.957Z,423.77
2023-02-16T04:45:54.632Z,434.07
2023-02-16T04:48:22.260Z,432.67
2023-02-16T04:50:49.867Z,428.10
2023-02-16T04:53:18.979Z,432.27
2023-02-16T04:55:47.581Z,436.67
2023-02-16T04:58:15.331Z,435.23
2023-02-16T05:00:43.599Z,435.73
2023-02-16T05:03:11.206Z,437.27
2023-02-16T05:05:38.927Z,429.50
2023-02-16T05:08:07.026Z,433.53
2023-02-16T05:10:35.982Z,440.10
2023-02-16T05:13:21.306Z,424.07
2023-02-16T05:15:48.971Z,427.50
2023-02-16T05:18:16.559Z,435.53
2023-02-16T05:21:01.958Z,432.13
2023-02-16T05:23:29.713Z,427.03
2023-02-16T05:25:58.694Z,435.27
2023-02-16T05:28:26.347Z,435.97
2023-02-16T05:30:55.126Z,443.97
2023-02-16T05:33:22.752Z,447.53
2023-02-16T05:35:50.380Z,440.20
2023-02-16T05:38:17.986Z,431.30
2023-02-16T05:40:45.562Z,427.13
2023-02-16T05:43:14.490Z,436.00
2023-02-16T05:45:42.060Z,432.00
2023-02-16T05:48:09.624Z,438.97
2023-02-16T05:50:37.586Z,434.47
2023-02-16T05:53:05.249Z,442.80
2023-02-16T05:55:32.884Z,435.53
2023-02-16T05:58:00.469Z,438.37
2023-02-16T06:00:33.395Z,435.77
2023-02-16T06:03:01.060Z,436.77
2023-02-16T06:05:28.740Z,429.80
2023-02-16T06:07:56.295Z,430.90
2023-02-16T06:10:23.979Z,426.97
2023-02-16T06:12:51.557Z,434.13
2023-02-16T06:15:19.460Z,436.40
2023-02-16T06:17:48.405Z,437.63
2023-02-16T06:20:15.977Z,438.67
2023-02-16T06:22:43.594Z,435.30
2023-02-16T06:25:11.271Z,442.60
2023-02-16T06:27:38.898Z,435.87
2023-02-16T06:30:08.648Z,441.10
2023-02-16T06:32:36.571Z,440.77
2023-02-16T06:35:05.839Z,439.43
2023-02-16T06:37:33.490Z,432.47
2023-02-16T06:40:01.066Z,452.27
2023-02-16T06:42:28.623Z,441.40
2023-02-16T06:44:56.266Z,439.47
2023-02-16T06:47:23.875Z,445.40
2023-02-16T06:49:51.468Z,444.53
2023-02-16T06:52:20.577Z,443.17
2023-02-16T06:54:48.207Z,453.23
2023-02-16T06:57:15.818Z,447.83
2023-02-16T06:59:43.439Z,444.67
2023-02-16T07:02:11.384Z,445.33
2023-02-16T07:04:38.976Z,439.43
2023-02-16T07:07:06.673Z,450.03
2023-02-16T07:09:37.202Z,447.13
2023-02-16T07:12:05.113Z,457.97
2023-02-16T07:14:33.305Z,449.80
2023-02-16T07:17:04.171Z,446.40
2023-02-16T07:19:32.971Z,447.43
2023-02-16T07:22:00.773Z,457.70
2023-02-16T07:24:28.710Z,459.70
2023-02-16T07:26:57.648Z,451.23
2023-02-16T07:29:25.224Z,449.80
2023-02-16T07:31:53.461Z,452.00
2023-02-16T07:34:22.142Z,454.30
2023-02-16T07:36:50.755Z,458.77
2023-02-16T07:39:18.396Z,450.77
2023-02-16T07:41:46.006Z,445.10
2023-02-16T07:44:15.017Z,449.73
2023-02-16T07:46:42.606Z,457.50
2023-02-16T07:49:10.178Z,460.40
2023-02-16T07:51:37.783Z,456.93
2023-02-16T07:54:05.345Z,451.23
2023-02-16T07:56:34.934Z,453.40
2023-02-16T07:59:04.241Z,457.20
2023-02-16T08:01:34.381Z,442.00
2023-02-16T08:04:02.005Z,444.83
2023-02-16T08:06:29.729Z,442.90
2023-02-16T08:08:58.033Z,449.57
2023-02-16T08:11:26.503Z,446.10
2023-02-16T08:13:54.118Z,448.43
2023-02-16T08:16:23.979Z,433.43
2023-02-16T08:18:53.681Z,443.77
2023-02-16T08:21:23.740Z,438.97
2023-02-16T08:23:54.808Z,450.60
2023-02-16T08:26:24.367Z,435.20
2023-02-16T08:28:52.630Z,435.13
2023-02-16T08:31:23.043Z,428.60
2023-02-16T08:33:53.536Z,427.23
2023-02-16T08:36:23.548Z,424.10
2023-02-16T08:38:52.131Z,416.50
2023-02-16T08:41:20.957Z,413.47
2023-02-16T08:43:49.560Z,412.40
2023-02-16T08:46:18.022Z,400.73
2023-02-16T08:48:45.988Z,398.80
2023-02-16T08:51:18.408Z,385.93
2023-02-16T08:53:46.670Z,362.80
2023-02-16T08:56:16.644Z,343.20
2023-02-16T08:58:44.406Z,341.00
2023-02-16T09:01:12.751Z,321.23
2023-02-16T09:03:42.700Z,306.07
2023-02-16T09:06:12.360Z,295.60
2023-02-16T09:08:41.976Z,272.43
2023-02-16T09:11:13.240Z,276.33
2023-02-16T09:13:41.916Z,254.33
2023-02-16T09:16:11.899Z,253.60
2023-02-16T09:18:40.891Z,260.00
2023-02-16T09:21:11.612Z,249.73
2023-02-16T09:23:40.150Z,249.03
2023-02-16T09:26:11.040Z,256.90
2023-02-16T09:28:39.882Z,237.17
2023-02-16T09:31:12.311Z,238.60
2023-02-16T09:33:41.426Z,218.00
2023-02-16T09:36:11.698Z,219.77
2023-02-16T09:38:40.519Z,215.67
2023-02-16T09:41:15.345Z,223.73
2023-02-16T09:43:49.789Z,226.27
2023-02-16T09:46:22.689Z,218.77
2023-02-16T09:48:51.291Z,230.03
2023-02-16T09:51:33.819Z,222.70
2023-02-16T09:54:14.250Z,220.83
2023-02-16T09:56:50.271Z,216.50
2023-02-16T09:59:36.556Z,209.03
2023-02-16T10:02:23.551Z,200.17
2023-02-16T10:05:04.344Z,213.10
2023-02-16T10:07:41.377Z,211.67
2023-02-16T10:10:12.764Z,219.60
2023-02-16T10:12:55.773Z,219.67
2023-02-16T10:15:27.850Z,212.80
2023-02-16T10:17:58.761Z,213.00
2023-02-16T10:20:32.585Z,223.30
2023-02-16T10:23:08.265Z,216.73
2023-02-16T10:25:42.630Z,220.07
2023-02-16T10:28:17.494Z,223.60
2023-02-16T10:30:51.553Z,229.07
2023-02-16T10:33:33.850Z,221.77
2023-02-16T10:36:04.174Z,224.67
2023-02-16T10:38:38.362Z,220.73
2023-02-16T10:41:17.831Z,224.07
2023-02-16T10:43:53.996Z,225.70
2023-02-16T10:46:24.800Z,231.40
2023-02-16T10:48:54.672Z,230.80
2023-02-16T10:51:27.979Z,235.90
2023-02-16T10:54:00.542Z,237.03
2023-02-16T10:56:42.359Z,241.80
2023-02-16T10:59:17.630Z,229.97
2023-02-16T11:01:47.275Z,232.63
2023-02-16T11:04:40.262Z,240.53
2023-02-16T11:07:10.756Z,241.13
2023-02-16T11:09:39.929Z,250.70
2023-02-16T11:12:26.716Z,250.00
2023-02-16T11:14:57.758Z,260.67
2023-02-16T11:17:26.257Z,256.63
2023-02-16T11:19:56.178Z,260.57
2023-02-16T11:22:36.897Z,255.00
2023-02-16T11:25:24.509Z,258.10
2023-02-16T11:27:54.941Z,254.87
2023-02-16T11:30:32.563Z,254.57
2023-02-16T11:33:02.719Z,264.70
2023-02-16T11:35:32.838Z,254.83
2023-02-16T11:38:01.016Z,267.90
2023-02-16T11:40:32.610Z,270.33
2023-02-16T11:43:02.439Z,272.90
2023-02-16T11:45:34.552Z,270.00
2023-02-16T11:48:05.912Z,274.37
2023-02-16T11:50:38.447Z,276.97
2023-02-16T11:53:16.949Z,279.40
2023-02-16T11:55:46.786Z,278.80
2023-02-16T11:58:17.778Z,285.17
2023-02-16T12:00:57.619Z,292.53
2023-02-16T12:04:01.265Z,288.20
2023-02-16T12:06:39.999Z,280.57
2023-02-16T12:09:17.020Z,279.60
2023-02-16T12:11:56.600Z,285.77
2023-02-16T12:14:36.680Z,289.73
2023-02-16T12:17:19.880Z,284.87
2023-02-16T12:19:49.725Z,283.80
2023-02-16T12:22:29.072Z,286.73
2023-02-16T12:25:14.007Z,288.90
2023-02-16T12:27:49.375Z,284.73
2023-02-16T12:30:29.008Z,281.17
2023-02-16T12:33:13.040Z,285.47
2023-02-16T12:35:57.318Z,273.13
2023-02-16T12:38:39.701Z,288.20
2023-02-16T12:41:22.094Z,288.37
2023-02-16T12:43:54.734Z,282.80
2023-02-16T12:46:28.176Z,282.57
2023-02-16T12:49:01.156Z,282.90
2023-02-16T12:51:36.435Z,291.10
2023-02-16T12:54:10.767Z,289.97
2023-02-16T12:56:43.202Z,291.30
2023-02-16T12:59:21.299Z,295.37
2023-02-16T13:01:53.229Z,290.63
2023-02-16T13:04:27.178Z,287.30
2023-02-16T13:07:02.948Z,285.00
2023-02-16T13:09:38.874Z,299.53
2023-02-16T13:12:12.178Z,292.23
2023-02-16T13:14:44.861Z,290.70
2023-02-16T13:17:16.966Z,291.40
2023-02-16T13:19:47.719Z,299.60
2023-02-16T13:22:43.192Z,286.03
2023-02-16T13:25:30.910Z,299.50
2023-02-16T13:28:12.179Z,310.13
2023-02-16T13:31:06.722Z,294.40
2023-02-16T13:33:52.765Z,292.07
2023-02-16T13:36:57.352Z,292.60
2023-02-16T13:39:47.469Z,309.47
2023-02-16T13:42:35.526Z,296.63
2023-02-16T13:45:05.927Z,304.73
2023-02-16T13:47:38.478Z,312.60
2023-02-16T13:50:09.330Z,319.80
2023-02-16T13:52:41.767Z,309.43
2023-02-16T13:55:24.411Z,313.20
2023-02-16T13:58:00.218Z,317.10
2023-02-16T14:00:31.653Z,326.03
2023-02-16T14:03:02.108Z,326.93
2023-02-16T14:05:34.128Z,327.73
2023-02-16T14:08:21.635Z,320.53
2023-02-16T14:11:08.674Z,332.90
2023-02-16T14:13:49.787Z,344.20
2023-02-16T14:16:32.996Z,345.47
2023-02-16T14:19:04.623Z,334.20
2023-02-16T14:21:38.128Z,332.67
2023-02-16T14:24:12.885Z,327.43
2023-02-16T14:26:56.258Z,324.40
2023-02-16T14:29:28.073Z,324.83
2023-02-16T14:32:01.277Z,346.07
2023-02-16T14:34:32.173Z,358.40
2023-02-16T14:37:32.641Z,355.67
2023-02-16T14:40:20.655Z,356.67
2023-02-16T14:42:53.498Z,368.07
2023-02-16T14:45:51.550Z,365.13
2023-02-16T14:48:33.191Z,374.70
2023-02-16T14:51:43.871Z,371.97
2023-02-16T14:54:57.420Z,399.73
2023-02-16T14:57:31.394Z,400.23
2023-02-16T15:00:03.149Z,403.77
2023-02-16T15:02:33.710Z,403.70
2023-02-16T15:05:17.753Z,415.50
2023-02-16T15:07:47.537Z,440.13
2023-02-16T15:10:15.897Z,413.03
2023-02-16T15:12:45.614Z,430.50
2023-02-16T15:15:20.252Z,427.67
2023-02-16T15:17:49.212Z,427.33
2023-02-16T15:20:24.853Z,442.30
2023-02-16T15:22:53.792Z,452.40
2023-02-16T15:25:25.016Z,479.93
2023-02-16T15:28:00.277Z,451.47
2023-02-16T15:30:31.001Z,458.90
2023-02-16T15:33:01.207Z,432.60
2023-02-16T15:35:34.221Z,424.93
2023-02-16T15:38:09.027Z,426.93
2023-02-16T15:40:37.489Z,440.50
2023-02-16T15:43:11.312Z,457.17
2023-02-16T15:45:39.300Z,453.73
2023-02-16T15:48:21.920Z,439.90
2023-02-16T15:50:51.669Z,449.63
2023-02-16T15:53:28.145Z,436.00
2023-02-16T15:55:56.241Z,447.93
2023-02-16T15:58:25.276Z,438.73
2023-02-16T16:00:54.199Z,497.60
2023-02-16T16:03:23.333Z,508.83
2023-02-16T16:05:59.595Z,475.73
2023-02-16T16:08:29.791Z,466.97
2023-02-16T16:10:57.886Z,488.20
2023-02-16T16:13:29.851Z,498.57
2023-02-16T16:16:01.727Z,517.63
2023-02-16T16:18:43.162Z,477.90
2023-02-16T16:21:24.649Z,456.97
2023-02-16T16:24:01.520Z,474.33
2023-02-16T16:26:35.123Z,451.60
2023-02-16T16:29:04.916Z,446.60
2023-02-16T16:31:42.113Z,429.20
2023-02-16T16:34:12.953Z,435.33
2023-02-16T16:36:47.484Z,441.53
2023-02-16T16:39:25.456Z,433.37
2023-02-16T16:42:16.829Z,430.80
2023-02-16T16:44:55.294Z,425.87
2023-02-16T16:47:27.209Z,413.90
2023-02-16T16:49:57.011Z,431.70
2023-02-16T16:52:43.644Z,434.63
2023-02-16T16:55:38.080Z,438.57
2023-02-16T16:58:08.131Z,436.83
2023-02-16T17:00:42.240Z,432.47
2023-02-16T17:03:14.784Z,425.23
2023-02-16T17:05:43.733Z,419.10
2023-02-16T17:08:12.395Z,413.03
2023-02-16T17:10:41.866Z,418.63
2023-02-16T17:13:14.987Z,409.63
2023-02-16T17:15:48.887Z,416.80
2023-02-16T17:18:18.352Z,414.60
2023-02-16T17:20:47.177Z,418.27
2023-02-16T17:23:16.665Z,410.33
2023-02-16T17:25:44.567Z,425.57
2023-02-16T17:28:14.003Z,423.83
2023-02-16T17:30:42.731Z,415.43
2023-02-16T17:33:12.369Z,417.73
2023-02-16T17:35:42.441Z,413.53
2023-02-16T17:38:11.790Z,416.47
2023-02-16T17:40:41.157Z,418.53
2023-02-16T17:43:13.607Z,410.23
2023-02-16T17:45:41.329Z,417.27
2023-02-16T17:48:11.860Z,409.77
2023-02-16T17:50:40.763Z,402.60
2023-02-16T17:53:12.686Z,401.40
2023-02-16T17:55:40.539Z,404.33
2023-02-16T17:58:08.202Z,418.33
2023-02-16T18:00:36.793Z,407.17
2023-02-16T18:03:04.418Z,402.90
2023-02-16T18:05:32.052Z,400.47
2023-02-16T18:08:01.391Z,399.23
2023-02-16T18:10:35.483Z,404.43
2023-02-16T18:13:03.399Z,407.83
2023-02-16T18:15:31.082Z,402.80
2023-02-16T18:17:59.275Z,406.43
2023-02-16T18:20:27.600Z,397.07
2023-02-16T18:22:55.441Z,399.47
2023-02-16T18:25:25.087Z,389.23
2023-02-16T18:27:53.227Z,413.87
2023-02-16T18:30:21.223Z,405.57
2023-02-16T18:32:48.887Z,410.00
2023-02-16T18:35:17.441Z,414.70
2023-02-16T18:37:46.322Z,411.13
2023-02-16T18:40:16.651Z,414.23
2023-02-16T18:42:45.945Z,403.00
2023-02-16T18:45:13.779Z,412.13
2023-02-16T18:47:41.418Z,405.07
2023-02-16T18:50:10.010Z,407.90
2023-02-16T18:52:37.650Z,408.77
2023-02-16T18:55:05.627Z,406.40
2023-02-16T18:57:33.232Z,402.13
2023-02-16T19:00:02.388Z,414.00
2023-02-16T19:02:30.162Z,399.57
2023-02-16T19:04:57.793Z,396.90
2023-02-16T19:07:25.418Z,396.93
2023-02-16T19:09:53.098Z,390.50
2023-02-16T19:12:20.843Z,394.00
2023-02-16T19:14:48.450Z,385.07
2023-02-16T19:17:17.539Z,383.13
2023-02-16T19:19:45.157Z,376.17
2023-02-16T19:22:12.748Z,378.23
2023-02-16T19:24:40.446Z,368.07
2023-02-16T19:27:08.074Z,377.77
2023-02-16T19:29:35.689Z,365.93
2023-02-16T19:32:03.353Z,373.00
2023-02-16T19:34:33.431Z,363.53
2023-02-16T19:37:01.117Z,378.63
2023-02-16T19:39:28.736Z,378.63
2023-02-16T19:41:56.380Z,376.47
2023-02-16T19:44:24.026Z,385.57
2023-02-16T19:46:51.714Z,371.43
2023-02-16T19:49:19.992Z,376.07
2023-02-16T19:51:49.321Z,368.27
2023-02-16T19:54:16.982Z,380.50
2023-02-16T19:56:44.646Z,386.03
2023-02-16T19:59:12.258Z,388.57
2023-02-16T20:01:40.016Z,382.17
2023-02-16T20:04:07.698Z,390.13
2023-02-16T20:06:39.136Z,391.53
2023-02-16T20:09:09.314Z,386.43
2023-02-16T20:11:45.058Z,385.73
2023-02-16T20:14:13.200Z,389.40
2023-02-16T20:16:40.887Z,377.37
2023-02-16T20:19:08.598Z,389.27
2023-02-16T20:21:36.298Z,375.53
2023-02-16T20:24:06.063Z,377.73
2023-02-16T20:26:35.481Z,376.83
2023-02-16T20:29:05.583Z,379.07
2023-02-16T20:31:35.696Z,380.30
2023-02-16T20:34:04.168Z,373.30
2023-02-16T20:36:32.324Z,368.83
2023-02-16T20:38:59.981Z,386.53
2023-02-16T20:41:27.873Z,373.97
2023-02-16T20:43:55.499Z,370.07
2023-02-16T20:46:25.988Z,369.67
2023-02-16T20:48:53.965Z,361.77
2023-02-16T20:51:21.997Z,366.73
2023-02-16T20:53:49.662Z,369.47
2023-02-16T20:56:20.682Z,363.40
2023-02-16T20:58:50.464Z,370.00
2023-02-16T21:01:21.548Z,363.73
2023-02-16T21:03:51.150Z,375.90
2023-02-16T21:06:19.658Z,367.10
2023-02-16T21:08:47.544Z,382.53
2023-02-16T21:11:15.806Z,364.37
2023-02-16T21:13:43.871Z,370.27
2023-02-16T21:16:12.037Z,362.63
2023-02-16T21:18:40.670Z,365.70
2023-02-16T21:21:15.217Z,363.10
2023-02-16T21:23:43.121Z,363.60
2023-02-16T21:26:10.750Z,366.93
2023-02-16T21:28:38.813Z,366.27
2023-02-16T21:31:09.706Z,366.77
2023-02-16T21:33:38.230Z,358.00
2023-02-16T21:36:07.394Z,364.17
2023-02-16T21:38:37.353Z,366.83
2023-02-16T21:41:23.347Z,359.10
2023-02-16T21:43:52.921Z,368.57
2023-02-16T21:46:20.487Z,368.10
2023-02-16T21:48:47.532Z,357.13
2023-02-16T21:51:18.491Z,364.17
2023-02-16T21:53:48.269Z,363.20
2023-02-16T21:56:27.045Z,360.00
2023-02-16T21:58:54.778Z,367.87
2023-02-16T22:01:24.669Z,356.07
2023-02-16T22:03:56.085Z,363.20
2023-02-16T22:06:25.225Z,368.57
2023-02-16T22:08:54.727Z,368.80
2023-02-16T22:11:22.608Z,371.30
2023-02-16T22:13:54.575Z,373.30
2023-02-16T22:16:22.214Z,372.07
2023-02-16T22:18:50.140Z,382.17
2023-02-16T22:21:18.262Z,371.10
2023-02-16T22:23:45.820Z,374.43
2023-02-16T22:26:25.260Z,373.50
2023-02-16T22:28:53.413Z,381.60
2023-02-16T22:31:23.158Z,382.83
2023-02-16T22:33:56.402Z,376.77
2023-02-16T22:36:23.999Z,372.67
2023-02-16T22:38:53.097Z,378.07
2023-02-16T22:41:22.679Z,374.37
2023-02-16T22:43:53.891Z,378.43
2023-02-16T22:46:21.775Z,385.97
2023-02-16T22:48:49.437Z,377.90
2023-02-16T22:51:18.042Z,382.90
2023-02-16T22:53:45.732Z,384.50
2023-02-16T22:56:17.322Z,380.63
2023-02-16T22:58:46.793Z,388.73
2023-02-16T23:01:16.083Z,380.67
2023-02-16T23:03:44.016Z,386.80
2023-02-16T23:06:14.532Z,382.20
2023-02-16T23:08:42.542Z,381.67
2023-02-16T23:11:10.200Z,373.60
2023-02-16T23:13:38.203Z,383.87
2023-02-16T23:16:08.985Z,378.57
2023-02-16T23:18:36.674Z,381.83
2023-02-16T23:21:08.818Z,374.73
2023-02-16T23:23:36.524Z,385.63
2023-02-16T23:26:06.386Z,390.10
2023-02-16T23:28:34.230Z,384.50
2023-02-16T23:31:02.091Z,393.07
2023-02-16T23:33:31.146Z,379.30
2023-02-16T23:35:59.455Z,386.83
2023-02-16T23:38:27.176Z,385.20
2023-02-16T23:40:58.672Z,397.60
2023-02-16T23:43:26.399Z,384.90
2023-02-16T23:45:54.775Z,391.60
2023-02-16T23:48:23.056Z,389.37
2023-02-16T23:50:53.006Z,404.07
2023-02-16T23:53:21.734Z,403.90
2023-02-16T23:55:57.775Z,398.03
2023-02-16T23:58:27.155Z,399.93
